createdAt,value
2023-01-17T00:02:32.972Z,3.00
2023-01-17T00:07:53.374Z,3.00
2023-01-17T00:13:01.051Z,3.00
2023-01-17T00:18:02.882Z,3.00
2023-01-17T00:23:30.903Z,2.90
2023-01-17T00:28:37.994Z,3.00
2023-01-17T00:33:40.087Z,2.80
2023-01-17T00:38:42.491Z,2.80
2023-01-17T00:44:02.881Z,2.70
2023-01-17T00:49:23.473Z,2.70
2023-01-17T00:54:43.857Z,2.50
2023-01-17T01:00:04.304Z,2.50
2023-01-17T01:05:25.346Z,2.40
2023-01-17T01:10:45.899Z,2.40
2023-01-17T01:16:06.409Z,2.30
2023-01-17T01:21:26.889Z,2.20
2023-01-17T01:26:47.444Z,2.20
2023-01-17T01:32:08.059Z,2.20
2023-01-17T01:37:10.090Z,2.20
2023-01-17T01:42:16.316Z,2.10
2023-01-17T01:47:30.977Z,2.10
2023-01-17T01:52:36.547Z,2.10
2023-01-17T01:57:42.389Z,2.10
2023-01-17T02:02:47.918Z,2.10
2023-01-17T02:08:08.448Z,2.00
2023-01-17T02:13:11.108Z,1.90
2023-01-17T02:18:25.348Z,1.90
2023-01-17T02:23:44.161Z,1.90
2023-01-17T02:29:23.613Z,1.80
2023-01-17T02:34:36.421Z,1.80
2023-01-17T02:39:48.698Z,1.70
2023-01-17T02:44:50.437Z,1.70
2023-01-17T02:50:03.477Z,1.70
2023-01-17T02:55:14.882Z,1.60
2023-01-17T03:00:31.873Z,1.60
2023-01-17T03:05:42.966Z,1.50
2023-01-17T03:10:45.325Z,1.50
2023-01-17T03:15:47.504Z,1.50
2023-01-17T03:20:49.259Z,1.50
2023-01-17T03:25:51.042Z,1.50
2023-01-17T03:30:53.063Z,1.40
2023-01-17T03:35:58.080Z,1.40
2023-01-17T03:40:59.832Z,1.30
2023-01-17T03:46:06.700Z,1.30
2023-01-17T03:51:08.580Z,1.30
2023-01-17T03:56:10.345Z,1.30
2023-01-17T04:01:12.650Z,1.30
2023-01-17T04:06:14.485Z,1.20
2023-01-17T04:11:16.560Z,1.20
2023-01-17T04:16:19.056Z,1.20
2023-01-17T04:21:20.954Z,1.10
2023-01-17T04:26:22.710Z,1.20
2023-01-17T04:31:24.518Z,1.20
2023-01-17T04:36:26.284Z,1.10
2023-01-17T04:41:28.052Z,1.10
2023-01-17T04:46:30.209Z,1.20
2023-01-17T04:51:32.016Z,1.10
2023-01-17T04:56:33.805Z,1.10
2023-01-17T05:01:35.642Z,1.10
2023-01-17T05:06:37.502Z,1.00
2023-01-17T05:11:39.576Z,1.00
2023-01-17T05:16:41.469Z,1.10
2023-01-17T05:21:43.473Z,1.10
2023-01-17T05:26:46.227Z,1.00
2023-01-17T05:31:48.050Z,1.10
2023-01-17T05:36:49.888Z,1.10
2023-01-17T05:41:51.926Z,1.10
2023-01-17T05:46:54.717Z,1.00
2023-01-17T05:51:57.881Z,1.10
2023-01-17T05:56:59.734Z,1.00
2023-01-17T06:02:01.552Z,1.00
2023-01-17T06:07:03.401Z,1.10
2023-01-17T06:12:05.561Z,1.00
2023-01-17T06:17:07.372Z,1.00
2023-01-17T06:22:09.286Z,0.80
2023-01-17T06:27:11.108Z,0.60
2023-01-17T06:32:22.725Z,0.50
2023-01-17T06:37:24.532Z,0.50
2023-01-17T06:42:26.282Z,0.30
2023-01-17T06:47:28.025Z,0.40
2023-01-17T06:52:29.776Z,0.40
2023-01-17T06:57:31.694Z,0.40
2023-01-17T07:02:33.463Z,0.40
2023-01-17T07:07:37.478Z,0.30
2023-01-17T07:12:39.357Z,0.10
2023-01-17T07:17:41.285Z,0.30
2023-01-17T07:22:46.423Z,0.30
2023-01-17T07:27:48.622Z,0.30
2023-01-17T07:32:54.483Z,0.30
2023-01-17T07:37:56.300Z,0.30
2023-01-17T07:43:13.636Z,0.40
2023-01-17T07:48:15.767Z,0.40
2023-01-17T07:53:17.556Z,0.30
2023-01-17T07:58:20.171Z,0.30
2023-01-17T08:03:21.955Z,0.20
2023-01-17T08:08:23.827Z,0.20
2023-01-17T08:13:25.597Z,0.40
2023-01-17T08:18:27.329Z,0.20
2023-01-17T08:23:31.170Z,0.30
2023-01-17T08:28:32.925Z,0.30
2023-01-17T08:33:34.761Z,0.40
2023-01-17T08:38:36.596Z,0.40
2023-01-17T08:43:38.567Z,0.50
2023-01-17T08:48:40.328Z,0.70
2023-01-17T08:53:42.525Z,0.60
2023-01-17T08:58:44.388Z,0.70
2023-01-17T09:03:49.219Z,0.70
2023-01-17T09:08:52.297Z,0.80
2023-01-17T09:13:54.090Z,1.00
2023-01-17T09:18:57.424Z,1.00
2023-01-17T09:23:59.261Z,1.20
2023-01-17T09:29:01.127Z,1.30
2023-01-17T09:34:03.041Z,1.30
2023-01-17T09:39:04.920Z,1.40
2023-01-17T09:44:26.993Z,1.50
2023-01-17T09:49:43.372Z,1.60
2023-01-17T09:54:48.623Z,1.80
2023-01-17T10:00:05.817Z,1.90
2023-01-17T10:05:19.735Z,2.20
2023-01-17T10:10:39.577Z,2.30
2023-01-17T10:16:12.631Z,2.30
2023-01-17T10:21:26.965Z,2.50
2023-01-17T10:26:28.772Z,2.50
2023-01-17T10:31:43.396Z,2.40
2023-01-17T10:37:08.494Z,2.50
2023-01-17T10:42:23.412Z,2.60
2023-01-17T10:47:29.177Z,2.70
2023-01-17T10:52:47.704Z,2.80
2023-01-17T10:57:50.423Z,2.90
2023-01-17T11:02:52.577Z,3.10
2023-01-17T11:08:06.066Z,3.10
2023-01-17T11:13:31.031Z,3.30
2023-01-17T11:18:38.321Z,3.50
2023-01-17T11:23:44.140Z,3.50
2023-01-17T11:28:45.892Z,3.90
2023-01-17T11:33:54.025Z,3.90
2023-01-17T11:39:19.157Z,4.00
2023-01-17T11:44:35.766Z,3.90
2023-01-17T11:49:38.735Z,3.90
2023-01-17T11:54:42.510Z,4.20
2023-01-17T11:59:45.178Z,4.40
2023-01-17T12:05:18.470Z,4.40
2023-01-17T12:10:43.849Z,4.60
2023-01-17T12:16:02.198Z,4.70
2023-01-17T12:21:03.906Z,5.00
2023-01-17T12:26:24.382Z,5.10
2023-01-17T12:31:33.457Z,5.10
2023-01-17T12:36:42.571Z,5.00
2023-01-17T12:41:57.406Z,4.70
2023-01-17T12:47:04.742Z,4.90
2023-01-17T12:52:25.560Z,5.00
2023-01-17T12:57:33.631Z,5.40
2023-01-17T13:02:56.690Z,5.00
2023-01-17T13:08:04.415Z,4.80
2023-01-17T13:13:26.681Z,5.20
2023-01-17T13:18:29.960Z,5.20
2023-01-17T13:23:52.505Z,5.40
2023-01-17T13:29:18.394Z,5.20
2023-01-17T13:34:37.019Z,5.60
2023-01-17T13:39:57.505Z,5.80
2023-01-17T13:44:59.308Z,6.20
2023-01-17T13:50:01.107Z,6.00
2023-01-17T13:55:05.376Z,6.10
2023-01-17T14:00:15.986Z,6.50
2023-01-17T14:05:41.859Z,6.80
2023-01-17T14:10:49.788Z,6.50
2023-01-17T14:15:52.310Z,6.90
2023-01-17T14:21:06.067Z,7.00
2023-01-17T14:26:33.282Z,7.00
2023-01-17T14:31:35.216Z,8.40
2023-01-17T14:36:38.379Z,10.60
2023-01-17T14:41:40.858Z,11.00
2023-01-17T14:46:48.090Z,9.80
2023-01-17T14:52:19.346Z,8.40
2023-01-17T14:57:29.400Z,9.80
2023-01-17T15:02:31.919Z,9.40
2023-01-17T15:07:33.769Z,9.00
2023-01-17T15:12:38.749Z,7.00
2023-01-17T15:17:40.522Z,5.80
2023-01-17T15:22:42.561Z,5.50
2023-01-17T15:27:44.470Z,5.10
2023-01-17T15:32:51.260Z,4.80
2023-01-17T15:37:54.976Z,4.60
2023-01-17T15:43:00.992Z,4.20
2023-01-17T15:48:41.373Z,4.10
2023-01-17T15:53:44.091Z,3.80
2023-01-17T15:58:50.185Z,3.50
2023-01-17T16:03:54.572Z,3.40
2023-01-17T16:08:56.320Z,3.20
2023-01-17T16:13:58.083Z,3.10
2023-01-17T16:19:02.167Z,2.90
2023-01-17T16:24:06.012Z,3.00
2023-01-17T16:29:08.267Z,2.70
2023-01-17T16:34:12.598Z,2.50
2023-01-17T16:39:15.349Z,2.50
2023-01-17T16:44:17.154Z,2.30
2023-01-17T16:49:18.992Z,2.20
2023-01-17T16:54:20.844Z,2.10
2023-01-17T16:59:23.092Z,2.00
2023-01-17T17:04:24.869Z,2.00
2023-01-17T17:09:26.679Z,2.00
2023-01-17T17:14:29.358Z,1.80
2023-01-17T17:19:31.181Z,1.80
2023-01-17T17:24:33.327Z,1.70
2023-01-17T17:29:36.108Z,1.60
2023-01-17T17:34:38.668Z,1.50
2023-01-17T17:39:40.472Z,1.50
2023-01-17T17:44:42.338Z,1.40
2023-01-17T17:49:44.243Z,1.40
2023-01-17T17:54:46.032Z,1.30
2023-01-17T17:59:47.918Z,1.20
2023-01-17T18:04:49.799Z,1.10
2023-01-17T18:09:51.744Z,1.20
2023-01-17T18:14:54.075Z,1.10
2023-01-17T18:19:55.954Z,1.00
2023-01-17T18:24:57.898Z,1.10
2023-01-17T18:29:59.720Z,1.00
2023-01-17T18:35:04.000Z,1.00
2023-01-17T18:40:07.180Z,0.90
2023-01-17T18:45:09.328Z,0.80
2023-01-17T18:50:11.108Z,0.80
2023-01-17T18:55:13.031Z,0.80
2023-01-17T19:00:15.413Z,0.80
2023-01-17T19:05:19.292Z,0.70
2023-01-17T19:10:21.141Z,0.70
2023-01-17T19:15:24.014Z,0.60
2023-01-17T19:20:26.033Z,0.60
2023-01-17T19:25:28.227Z,0.60
2023-01-17T19:30:30.497Z,0.60
2023-01-17T19:35:32.478Z,0.50
2023-01-17T19:40:34.454Z,0.50
2023-01-17T19:45:36.344Z,0.50
2023-01-17T19:50:38.256Z,0.40
2023-01-17T19:55:40.470Z,0.40
2023-01-17T20:00:46.750Z,0.20
2023-01-17T20:05:56.664Z,0.30
2023-01-17T20:11:30.436Z,0.30
2023-01-17T20:16:32.798Z,0.30
2023-01-17T20:21:35.830Z,0.20
2023-01-17T20:26:37.853Z,0.20
2023-01-17T20:31:41.589Z,0.10
2023-01-17T20:36:43.516Z,0.10
2023-01-17T20:41:46.485Z,0.10
2023-01-17T20:46:48.371Z,0.10
2023-01-17T20:51:50.258Z,0.10
2023-01-17T20:56:52.717Z,0.20
2023-01-17T21:01:54.687Z,0.10
2023-01-17T21:06:57.595Z,0.20
2023-01-17T21:12:01.344Z,0.10
2023-01-17T21:17:03.422Z,0.10
2023-01-17T21:22:05.532Z,0.10
2023-01-17T21:27:07.328Z,0.10
2023-01-17T21:32:09.132Z,0.20
2023-01-17T21:37:10.899Z,0.20
2023-01-17T21:42:12.704Z,0.10
2023-01-17T21:47:14.551Z,0.20
2023-01-17T21:52:19.040Z,0.20
2023-01-17T21:57:40.492Z,0.10
2023-01-17T22:02:44.416Z,0.10
2023-01-17T22:08:05.083Z,0.10
2023-01-17T22:13:06.786Z,0.00
2023-01-17T22:18:09.678Z,0.00
2023-01-17T22:23:11.882Z,0.00
2023-01-17T22:28:14.148Z,0.00
2023-01-17T22:33:15.938Z,0.00
2023-01-17T22:38:17.716Z,0.00
2023-01-17T22:43:19.763Z,0.00
2023-01-17T22:48:21.878Z,0.10
2023-01-17T22:53:23.934Z,0.00
2023-01-17T22:58:27.408Z,-0.10
2023-01-17T23:03:29.344Z,-0.10
2023-01-17T23:08:31.378Z,-0.20
2023-01-17T23:13:33.229Z,-0.10
2023-01-17T23:18:53.669Z,-0.10
2023-01-17T23:23:55.438Z,-0.10
2023-01-17T23:28:57.228Z,-0.10
2023-01-17T23:33:59.145Z,-0.20
2023-01-17T23:39:01.182Z,-0.30
2023-01-17T23:44:03.834Z,-0.20
2023-01-17T23:49:05.613Z,-0.20
2023-01-17T23:54:08.112Z,-0.20
2023-01-17T23:59:09.967Z,-0.10
